createdAt,value
2023-03-17T00:00:24.659Z,2.80
2023-03-17T00:02:52.461Z,2.47
2023-03-17T00:05:24.684Z,2.58
2023-03-17T00:07:54.324Z,2.80
2023-03-17T00:10:23.845Z,2.50
2023-03-17T00:12:53.292Z,2.60
2023-03-17T00:15:22.230Z,2.80
2023-03-17T00:17:51.597Z,2.95
2023-03-17T00:20:25.325Z,2.30
2023-03-17T00:22:55.258Z,2.30
2023-03-17T00:25:27.258Z,2.30
2023-03-17T00:27:56.851Z,2.60
2023-03-17T00:30:29.142Z,2.50
2023-03-17T00:32:59.630Z,2.83
2023-03-17T00:35:30.693Z,2.30
2023-03-17T00:37:59.985Z,2.58
2023-03-17T00:40:31.720Z,2.35
2023-03-17T00:43:00.904Z,2.40
2023-03-17T00:45:29.013Z,2.40
2023-03-17T00:47:58.965Z,2.38
2023-03-17T00:50:30.006Z,2.30
2023-03-17T00:52:59.140Z,2.40
2023-03-17T00:55:27.553Z,2.17
2023-03-17T00:57:55.479Z,2.58
2023-03-17T01:00:31.138Z,2.40
2023-03-17T01:02:58.910Z,2.13
2023-03-17T01:05:29.622Z,2.50
2023-03-17T01:07:58.791Z,2.42
2023-03-17T01:10:29.868Z,2.50
2023-03-17T01:13:00.058Z,2.58
2023-03-17T01:15:31.556Z,2.47
2023-03-17T01:18:02.586Z,2.15
2023-03-17T01:20:34.576Z,2.30
2023-03-17T01:25:30.874Z,2.35
2023-03-17T01:28:00.131Z,2.33
2023-03-17T01:30:31.008Z,2.42
2023-03-17T01:32:59.891Z,2.47
2023-03-17T01:35:30.213Z,2.50
2023-03-17T01:38:00.706Z,2.33
2023-03-17T01:40:32.247Z,2.33
2023-03-17T01:43:04.352Z,2.38
2023-03-17T01:48:20.768Z,2.70
2023-03-17T01:50:49.770Z,2.60
2023-03-17T01:53:21.358Z,2.60
2023-03-17T01:55:51.179Z,2.50
2023-03-17T01:58:21.323Z,2.70
2023-03-17T02:00:50.166Z,2.40
2023-03-17T02:03:19.734Z,2.50
2023-03-17T02:05:49.320Z,2.53
2023-03-17T02:08:19.608Z,2.45
2023-03-17T02:10:50.476Z,2.30
2023-03-17T02:13:18.175Z,2.63
2023-03-17T02:15:54.386Z,2.50
2023-03-17T02:18:24.585Z,2.40
2023-03-17T02:21:31.423Z,2.55
2023-03-17T02:24:01.795Z,2.30
2023-03-17T02:26:35.591Z,2.22
2023-03-17T02:29:05.899Z,2.40
2023-03-17T02:31:34.804Z,2.28
2023-03-17T02:34:03.599Z,2.22
2023-03-17T02:36:36.395Z,2.25
2023-03-17T02:41:32.480Z,2.20
2023-03-17T02:44:00.572Z,2.30
2023-03-17T02:46:29.079Z,2.50
2023-03-17T02:49:00.707Z,2.30
2023-03-17T02:51:28.449Z,2.15
2023-03-17T02:53:57.670Z,2.50
2023-03-17T02:56:26.105Z,2.65
2023-03-17T02:58:53.685Z,2.30
2023-03-17T03:01:22.252Z,2.25
2023-03-17T03:04:14.334Z,2.40
2023-03-17T03:09:14.726Z,2.42
2023-03-17T03:11:43.682Z,2.40
2023-03-17T03:14:13.588Z,2.35
2023-03-17T03:16:43.346Z,2.33
2023-03-17T03:19:11.078Z,2.40
2023-03-17T03:21:38.694Z,2.55
2023-03-17T03:24:07.453Z,2.33
2023-03-17T03:26:36.969Z,2.47
2023-03-17T03:29:05.256Z,2.47
2023-03-17T03:31:32.890Z,2.40
2023-03-17T03:34:01.080Z,2.67
2023-03-17T03:36:29.686Z,2.65
2023-03-17T03:38:58.601Z,2.28
2023-03-17T03:41:26.231Z,2.30
2023-03-17T03:43:55.605Z,2.20
2023-03-17T03:46:23.314Z,2.20
2023-03-17T03:48:50.949Z,2.50
2023-03-17T03:51:18.549Z,2.53
2023-03-17T03:53:48.140Z,2.40
2023-03-17T03:56:15.989Z,2.30
2023-03-17T03:58:43.746Z,2.28
2023-03-17T04:01:13.186Z,2.10
2023-03-17T04:03:41.241Z,2.00
2023-03-17T04:06:35.588Z,2.20
2023-03-17T04:09:05.595Z,2.00
2023-03-17T04:11:35.048Z,2.00
2023-03-17T04:14:03.180Z,2.30
2023-03-17T04:16:32.161Z,2.10
2023-03-17T04:18:59.960Z,2.53
2023-03-17T04:21:54.612Z,2.10
2023-03-17T04:24:22.666Z,2.20
2023-03-17T04:26:50.276Z,2.40
2023-03-17T04:29:18.991Z,2.30
2023-03-17T04:31:49.559Z,2.30
2023-03-17T04:34:19.725Z,2.60
2023-03-17T04:36:49.701Z,2.15
2023-03-17T04:39:18.329Z,2.53
2023-03-17T04:41:46.251Z,2.25
2023-03-17T04:44:14.147Z,2.60
2023-03-17T04:46:44.616Z,2.70
2023-03-17T04:49:13.669Z,2.28
2023-03-17T04:51:42.593Z,2.50
2023-03-17T04:54:10.190Z,2.58
2023-03-17T04:56:37.909Z,2.20
2023-03-17T04:59:05.699Z,2.30
2023-03-17T05:01:35.041Z,2.20
2023-03-17T05:04:02.664Z,2.30
2023-03-17T05:06:31.770Z,2.50
2023-03-17T05:08:59.697Z,2.50
2023-03-17T05:11:52.996Z,2.40
2023-03-17T05:14:20.555Z,2.55
2023-03-17T05:16:50.823Z,2.65
2023-03-17T05:19:19.097Z,2.42
2023-03-17T05:21:48.959Z,2.60
2023-03-17T05:24:17.795Z,2.80
2023-03-17T05:26:45.967Z,2.50
2023-03-17T05:29:13.548Z,2.58
2023-03-17T05:31:42.302Z,2.35
2023-03-17T05:34:10.148Z,2.53
2023-03-17T05:36:37.825Z,2.50
2023-03-17T05:39:11.573Z,2.67
2023-03-17T05:41:40.897Z,2.60
2023-03-17T05:44:10.302Z,2.70
2023-03-17T05:46:37.907Z,2.50
2023-03-17T05:49:06.049Z,2.72
2023-03-17T05:51:35.736Z,2.40
2023-03-17T05:54:05.610Z,2.65
2023-03-17T05:56:36.596Z,2.90
2023-03-17T05:59:04.529Z,2.80
2023-03-17T06:01:32.319Z,2.20
2023-03-17T06:04:02.610Z,2.28
2023-03-17T06:06:30.191Z,2.40
2023-03-17T06:08:58.683Z,2.30
2023-03-17T06:11:26.598Z,2.72
2023-03-17T06:13:56.989Z,2.70
2023-03-17T06:16:24.633Z,3.10
2023-03-17T06:18:53.676Z,2.90
2023-03-17T06:21:21.708Z,3.00
2023-03-17T06:23:50.871Z,2.90
2023-03-17T06:26:18.524Z,2.65
2023-03-17T06:28:46.493Z,2.35
2023-03-17T06:31:16.560Z,2.50
2023-03-17T06:33:44.146Z,2.50
2023-03-17T06:36:12.316Z,2.60
2023-03-17T06:38:40.505Z,2.70
2023-03-17T06:41:33.597Z,2.72
2023-03-17T06:44:02.808Z,2.38
2023-03-17T06:46:32.588Z,3.05
2023-03-17T06:49:01.606Z,3.08
2023-03-17T06:51:31.041Z,4.13
2023-03-17T06:53:59.192Z,4.80
2023-03-17T06:56:30.570Z,4.43
2023-03-17T06:59:00.592Z,4.20
2023-03-17T07:01:28.605Z,4.07
2023-03-17T07:03:57.576Z,4.35
2023-03-17T07:06:25.164Z,4.03
2023-03-17T07:08:52.780Z,3.75
2023-03-17T07:11:20.602Z,3.35
2023-03-17T07:13:49.060Z,3.30
2023-03-17T07:16:20.926Z,2.90
2023-03-17T07:18:52.719Z,3.15
2023-03-17T07:21:21.825Z,2.72
2023-03-17T07:23:49.446Z,2.90
2023-03-17T07:26:17.082Z,2.92
2023-03-17T07:28:45.161Z,2.50
2023-03-17T07:31:14.433Z,2.28
2023-03-17T07:33:42.698Z,2.22
2023-03-17T07:36:12.586Z,2.25
2023-03-17T07:38:41.638Z,2.00
2023-03-17T07:41:11.635Z,2.30
2023-03-17T07:43:39.293Z,2.00
2023-03-17T07:46:08.459Z,2.38
2023-03-17T07:48:41.991Z,2.30
2023-03-17T07:51:15.842Z,2.00
2023-03-17T07:53:46.325Z,2.42
2023-03-17T07:56:14.582Z,2.10
2023-03-17T07:58:42.166Z,2.20
2023-03-17T08:01:10.185Z,2.03
2023-03-17T08:03:41.148Z,1.88
2023-03-17T08:06:12.670Z,2.20
2023-03-17T08:08:50.608Z,2.72
2023-03-17T08:11:18.829Z,2.38
2023-03-17T08:13:46.611Z,1.92
2023-03-17T08:16:14.726Z,2.42
2023-03-17T08:18:44.586Z,2.00
2023-03-17T08:21:14.099Z,1.80
2023-03-17T08:23:44.678Z,2.15
2023-03-17T08:26:15.855Z,2.22
2023-03-17T08:28:44.748Z,2.45
2023-03-17T08:31:38.088Z,2.30
2023-03-17T08:34:06.670Z,2.00
2023-03-17T08:36:37.741Z,2.20
2023-03-17T08:39:06.263Z,2.42
2023-03-17T08:41:36.770Z,2.20
2023-03-17T08:44:04.740Z,2.60
2023-03-17T08:46:33.666Z,2.38
2023-03-17T08:49:03.195Z,2.30
2023-03-17T08:51:34.237Z,2.38
2023-03-17T08:54:06.731Z,2.83
2023-03-17T08:57:02.680Z,2.70
2023-03-17T08:59:30.319Z,2.85
2023-03-17T09:01:58.188Z,2.75
2023-03-17T09:04:26.525Z,2.50
2023-03-17T09:07:03.357Z,2.50
2023-03-17T09:09:32.757Z,2.30
2023-03-17T09:12:26.133Z,2.58
2023-03-17T09:14:54.561Z,2.42
2023-03-17T09:17:23.246Z,2.35
2023-03-17T09:19:51.122Z,2.60
2023-03-17T09:22:19.618Z,2.30
2023-03-17T09:24:48.511Z,2.33
2023-03-17T09:27:17.642Z,2.03
2023-03-17T09:29:45.438Z,2.30
2023-03-17T09:32:13.821Z,2.20
2023-03-17T09:34:42.157Z,2.30
2023-03-17T09:37:10.637Z,2.40
2023-03-17T09:39:38.322Z,2.30
2023-03-17T09:42:17.035Z,2.33
2023-03-17T09:45:03.329Z,2.17
2023-03-17T09:47:52.767Z,2.53
2023-03-17T09:50:26.058Z,2.35
2023-03-17T09:52:56.742Z,2.30
2023-03-17T09:55:53.669Z,2.83
2023-03-17T09:58:26.981Z,2.20
2023-03-17T10:00:57.614Z,2.22
2023-03-17T10:03:27.601Z,2.45
2023-03-17T10:06:02.082Z,2.20
2023-03-17T10:08:34.711Z,2.20
2023-03-17T10:11:10.850Z,2.25
2023-03-17T10:13:52.121Z,2.40
2023-03-17T10:16:24.273Z,2.30
2023-03-17T10:18:56.723Z,2.42
2023-03-17T10:21:29.430Z,2.28
2023-03-17T10:23:59.202Z,2.38
2023-03-17T10:26:33.352Z,2.55
2023-03-17T10:29:04.138Z,2.47
2023-03-17T10:31:35.430Z,2.67
2023-03-17T10:34:14.713Z,2.40
2023-03-17T10:36:45.481Z,2.50
2023-03-17T10:39:15.746Z,2.42
2023-03-17T10:41:57.616Z,2.33
2023-03-17T10:44:39.210Z,2.60
2023-03-17T10:47:22.602Z,2.35
2023-03-17T10:49:51.931Z,2.28
2023-03-17T10:52:22.588Z,2.20
2023-03-17T10:54:52.624Z,2.40
2023-03-17T10:57:21.348Z,2.38
2023-03-17T10:59:54.428Z,2.40
2023-03-17T11:02:27.464Z,2.47
2023-03-17T11:04:59.619Z,2.50
2023-03-17T11:07:35.601Z,2.58
2023-03-17T11:10:06.468Z,2.47
2023-03-17T11:12:39.246Z,2.67
2023-03-17T11:15:11.968Z,2.30
2023-03-17T11:17:47.602Z,2.30
2023-03-17T11:20:30.264Z,2.33
2023-03-17T11:23:05.493Z,2.42
2023-03-17T11:25:40.261Z,2.75
2023-03-17T11:28:19.723Z,2.30
2023-03-17T11:30:58.099Z,2.60
2023-03-17T11:33:41.632Z,2.50
2023-03-17T11:36:20.572Z,2.67
2023-03-17T11:38:59.978Z,2.75
2023-03-17T11:41:52.248Z,2.38
2023-03-17T11:44:52.625Z,2.97
2023-03-17T11:47:34.631Z,2.40
2023-03-17T11:50:17.578Z,2.45
2023-03-17T11:52:59.765Z,2.03
2023-03-17T11:55:38.702Z,2.30
2023-03-17T11:58:10.483Z,2.40
2023-03-17T12:05:47.685Z,2.60
2023-03-17T12:10:52.630Z,2.20
2023-03-17T12:13:27.914Z,2.20
2023-03-17T12:16:05.368Z,2.10
2023-03-17T12:18:37.376Z,2.00
2023-03-17T12:21:14.529Z,1.90
2023-03-17T12:23:48.187Z,1.92
2023-03-17T12:26:23.678Z,2.20
2023-03-17T12:28:57.401Z,2.00
2023-03-17T12:31:32.261Z,2.03
2023-03-17T12:34:06.354Z,2.00
2023-03-17T12:36:36.686Z,1.88
2023-03-17T12:39:10.122Z,2.45
2023-03-17T12:42:08.763Z,2.10
2023-03-17T12:44:58.039Z,1.90
2023-03-17T12:47:48.084Z,2.22
2023-03-17T12:50:44.736Z,2.30
2023-03-17T12:53:26.534Z,1.90
2023-03-17T12:55:56.482Z,2.08
2023-03-17T12:58:32.258Z,2.08
2023-03-17T13:01:08.738Z,1.90
2023-03-17T13:03:46.671Z,2.00
2023-03-17T13:06:20.723Z,1.70
2023-03-17T13:08:52.620Z,1.70
2023-03-17T13:11:29.654Z,2.00
2023-03-17T13:14:17.622Z,2.00
2023-03-17T13:16:47.627Z,1.70
2023-03-17T13:19:19.961Z,1.92
2023-03-17T13:22:13.892Z,2.17
2023-03-17T13:24:48.101Z,1.88
2023-03-17T13:27:36.617Z,1.95
2023-03-17T13:30:38.674Z,2.00
2023-03-17T13:33:23.622Z,1.85
2023-03-17T13:36:10.651Z,1.80
2023-03-17T13:39:18.176Z,2.13
2023-03-17T13:42:01.153Z,1.80
2023-03-17T13:44:43.667Z,1.73
2023-03-17T13:47:32.554Z,1.98
2023-03-17T13:50:07.456Z,2.08
2023-03-17T13:52:41.677Z,2.20
2023-03-17T13:55:35.721Z,1.92
2023-03-17T13:58:33.114Z,1.95
2023-03-17T14:01:07.203Z,2.05
2023-03-17T14:03:49.694Z,1.98
2023-03-17T14:06:19.348Z,2.13
2023-03-17T14:08:49.482Z,2.03
2023-03-17T14:11:25.813Z,2.30
2023-03-17T14:14:09.302Z,2.05
2023-03-17T14:16:44.029Z,1.92
2023-03-17T14:19:17.484Z,2.20
2023-03-17T14:21:45.310Z,2.50
2023-03-17T14:24:21.537Z,2.10
2023-03-17T14:26:50.233Z,1.92
2023-03-17T14:29:22.784Z,2.28
2023-03-17T14:32:04.183Z,1.88
2023-03-17T14:34:32.238Z,2.30
2023-03-17T14:37:02.801Z,2.30
2023-03-17T14:39:30.789Z,2.33
2023-03-17T14:42:00.382Z,1.90
2023-03-17T14:44:38.466Z,1.90
2023-03-17T14:47:14.638Z,2.28
2023-03-17T14:49:43.402Z,1.90
2023-03-17T14:52:20.319Z,2.17
2023-03-17T14:54:52.775Z,2.20
2023-03-17T14:57:24.558Z,2.05
2023-03-17T15:00:00.237Z,2.50
2023-03-17T15:02:35.084Z,2.05
2023-03-17T15:05:14.629Z,1.90
2023-03-17T15:08:40.865Z,2.05
2023-03-17T15:11:18.406Z,1.98
2023-03-17T15:13:46.527Z,2.00
2023-03-17T15:16:21.653Z,2.28
2023-03-17T15:18:53.977Z,1.75
2023-03-17T15:21:30.654Z,1.85
2023-03-17T15:24:05.613Z,1.80
2023-03-17T15:26:38.323Z,1.70
2023-03-17T15:29:07.641Z,2.13
2023-03-17T15:31:36.606Z,1.70
2023-03-17T15:34:05.322Z,1.90
2023-03-17T15:36:35.630Z,1.98
2023-03-17T15:39:03.754Z,2.05
2023-03-17T15:41:32.720Z,2.08
2023-03-17T15:44:06.306Z,2.28
2023-03-17T15:46:34.286Z,1.80
2023-03-17T15:49:03.265Z,2.13
2023-03-17T15:51:31.107Z,2.33
2023-03-17T15:53:59.753Z,2.13
2023-03-17T15:56:29.762Z,2.35
2023-03-17T15:58:57.373Z,2.05
2023-03-17T16:01:27.786Z,2.03
2023-03-17T16:03:55.837Z,2.15
2023-03-17T16:06:25.450Z,2.38
2023-03-17T16:08:53.153Z,1.90
2023-03-17T16:11:27.873Z,2.05
2023-03-17T16:13:56.758Z,2.03
2023-03-17T16:16:31.536Z,1.90
2023-03-17T16:19:00.120Z,2.10
2023-03-17T16:21:30.999Z,1.83
2023-03-17T16:23:59.411Z,2.03
2023-03-17T16:26:27.534Z,2.20
2023-03-17T16:28:55.641Z,2.10
2023-03-17T16:31:29.202Z,1.92
2023-03-17T16:33:57.095Z,2.00
2023-03-17T16:36:25.811Z,1.80
2023-03-17T16:38:54.815Z,2.10
2023-03-17T16:41:25.402Z,2.15
2023-03-17T16:43:58.736Z,2.10
2023-03-17T16:46:28.799Z,2.10
2023-03-17T16:48:56.485Z,1.95
2023-03-17T16:51:24.747Z,1.85
2023-03-17T16:53:55.649Z,2.00
2023-03-17T16:56:28.429Z,2.30
2023-03-17T16:58:56.194Z,2.05
2023-03-17T17:01:27.830Z,2.20
2023-03-17T17:03:56.514Z,2.38
2023-03-17T17:06:24.868Z,1.90
2023-03-17T17:08:52.948Z,2.20
2023-03-17T17:11:21.944Z,2.25
2023-03-17T17:13:51.526Z,2.05
2023-03-17T17:16:24.393Z,2.45
2023-03-17T17:18:52.254Z,2.15
2023-03-17T17:21:19.861Z,2.20
2023-03-17T17:23:47.654Z,1.80
2023-03-17T17:26:15.340Z,2.20
2023-03-17T17:28:44.308Z,1.90
2023-03-17T17:31:12.283Z,2.03
2023-03-17T17:33:40.205Z,2.00
2023-03-17T17:36:14.395Z,2.50
2023-03-17T17:38:42.244Z,1.90
2023-03-17T17:41:11.664Z,2.30
2023-03-17T17:43:39.410Z,1.92
2023-03-17T17:46:13.231Z,2.20
2023-03-17T17:48:41.036Z,2.08
2023-03-17T17:51:10.665Z,2.10
2023-03-17T17:53:38.253Z,2.10
2023-03-17T17:56:06.344Z,2.55
2023-03-17T17:58:34.275Z,2.40
2023-03-17T18:01:04.435Z,2.30
2023-03-17T18:03:33.914Z,2.20
2023-03-17T18:06:01.964Z,2.13
2023-03-17T18:08:29.774Z,2.30
2023-03-17T18:10:57.414Z,2.03
2023-03-17T18:13:25.035Z,2.28
2023-03-17T18:15:52.879Z,2.10
2023-03-17T18:18:20.692Z,2.10
2023-03-17T18:20:50.809Z,2.50
2023-03-17T18:23:20.095Z,2.33
2023-03-17T18:25:47.787Z,2.42
2023-03-17T18:28:16.657Z,2.38
2023-03-17T18:30:44.643Z,2.50
2023-03-17T18:33:17.719Z,3.10
2023-03-17T18:35:48.764Z,2.78
2023-03-17T18:38:17.931Z,2.70
2023-03-17T18:40:46.727Z,2.60
2023-03-17T18:43:14.371Z,2.60
2023-03-17T18:45:42.234Z,2.63
2023-03-17T18:48:09.869Z,2.50
2023-03-17T18:50:37.420Z,2.72
2023-03-17T18:53:05.930Z,2.90
2023-03-17T18:55:34.959Z,2.72
2023-03-17T18:58:02.540Z,2.70
2023-03-17T19:00:30.740Z,2.75
2023-03-17T19:02:58.860Z,2.58
2023-03-17T19:05:26.593Z,2.28
2023-03-17T19:07:54.376Z,2.60
2023-03-17T19:10:22.069Z,2.40
2023-03-17T19:12:52.080Z,2.40
2023-03-17T19:15:21.501Z,2.50
2023-03-17T19:17:50.236Z,2.47
2023-03-17T19:20:19.677Z,2.55
2023-03-17T19:22:47.357Z,2.28
2023-03-17T19:25:16.457Z,2.80
2023-03-17T19:27:44.327Z,2.45
2023-03-17T19:30:14.661Z,2.30
2023-03-17T19:32:42.410Z,2.20
2023-03-17T19:35:12.954Z,2.17
2023-03-17T19:37:42.747Z,2.42
2023-03-17T19:40:13.201Z,2.00
2023-03-17T19:42:40.911Z,2.20
2023-03-17T19:45:09.723Z,2.60
2023-03-17T19:47:38.668Z,2.28
2023-03-17T19:50:08.212Z,2.35
2023-03-17T19:52:36.166Z,2.60
2023-03-17T19:55:05.444Z,2.45
2023-03-17T19:57:34.741Z,2.38
2023-03-17T20:00:02.562Z,2.25
2023-03-17T20:02:38.899Z,1.90
2023-03-17T20:05:07.734Z,2.20
2023-03-17T20:07:36.036Z,2.30
2023-03-17T20:10:04.529Z,2.10
2023-03-17T20:12:32.633Z,2.20
2023-03-17T20:15:01.367Z,2.30
2023-03-17T20:17:29.070Z,2.47
2023-03-17T20:20:00.656Z,2.45
2023-03-17T20:22:28.291Z,2.50
2023-03-17T20:24:56.963Z,2.55
2023-03-17T20:27:25.208Z,2.30
2023-03-17T20:29:52.870Z,2.30
2023-03-17T20:32:21.058Z,2.20
2023-03-17T20:34:49.008Z,2.20
2023-03-17T20:37:18.672Z,2.30
2023-03-17T20:39:46.285Z,2.50
2023-03-17T20:42:15.099Z,2.17
2023-03-17T20:44:43.072Z,2.53
2023-03-17T20:47:11.271Z,2.60
2023-03-17T20:49:39.178Z,2.22
2023-03-17T20:52:08.405Z,2.28
2023-03-17T20:54:38.794Z,2.30
2023-03-17T20:57:07.674Z,2.60
2023-03-17T20:59:37.194Z,2.50
2023-03-17T21:02:05.378Z,2.25
2023-03-17T21:04:33.151Z,2.40
2023-03-17T21:07:00.754Z,2.15
2023-03-17T21:09:28.494Z,2.70
2023-03-17T21:11:57.644Z,2.38
2023-03-17T21:14:27.618Z,2.45
2023-03-17T21:16:55.188Z,2.25
2023-03-17T21:19:23.441Z,2.70
2023-03-17T21:21:51.288Z,2.55
2023-03-17T21:24:28.636Z,2.65
2023-03-17T21:26:59.522Z,2.25
2023-03-17T21:29:27.560Z,2.40
2023-03-17T21:31:56.711Z,2.72
2023-03-17T21:34:24.901Z,2.35
2023-03-17T21:36:52.754Z,2.50
2023-03-17T21:39:21.298Z,2.60
2023-03-17T21:41:50.836Z,2.50
2023-03-17T21:44:20.152Z,2.35
2023-03-17T21:46:49.188Z,2.70
2023-03-17T21:49:18.643Z,2.30
2023-03-17T21:51:47.620Z,2.58
2023-03-17T21:54:15.599Z,2.20
2023-03-17T21:56:43.554Z,2.50
2023-03-17T21:59:12.315Z,2.53
2023-03-17T22:01:41.723Z,2.70
2023-03-17T22:04:09.830Z,2.40
2023-03-17T22:06:37.504Z,2.88
2023-03-17T22:09:06.890Z,2.72
2023-03-17T22:11:34.914Z,2.35
2023-03-17T22:14:02.823Z,2.67
2023-03-17T22:16:31.165Z,2.50
2023-03-17T22:19:00.575Z,2.72
2023-03-17T22:21:28.682Z,2.40
2023-03-17T22:23:56.393Z,2.47
2023-03-17T22:26:24.056Z,2.50
2023-03-17T22:28:51.781Z,2.70
2023-03-17T22:31:22.266Z,2.33
2023-03-17T22:33:51.181Z,2.55
2023-03-17T22:36:20.575Z,2.50
2023-03-17T22:38:48.750Z,2.33
2023-03-17T22:41:18.693Z,2.38
2023-03-17T22:43:47.831Z,2.40
2023-03-17T22:46:16.642Z,2.70
2023-03-17T22:48:46.008Z,2.53
2023-03-17T22:51:16.287Z,2.40
2023-03-17T22:53:46.297Z,2.75
2023-03-17T22:56:15.585Z,2.70
2023-03-17T22:58:43.878Z,2.40
2023-03-17T23:01:13.319Z,2.25
2023-03-17T23:03:41.832Z,2.70
2023-03-17T23:06:13.009Z,2.53
2023-03-17T23:08:42.660Z,2.72
2023-03-17T23:11:14.433Z,2.70
2023-03-17T23:13:42.614Z,2.70
2023-03-17T23:16:10.804Z,2.50
2023-03-17T23:18:38.496Z,2.28
2023-03-17T23:21:07.348Z,2.90
2023-03-17T23:23:35.751Z,2.60
2023-03-17T23:26:03.557Z,2.40
2023-03-17T23:28:32.952Z,2.30
2023-03-17T23:31:02.565Z,2.50
2023-03-17T23:33:31.693Z,2.80
2023-03-17T23:35:59.317Z,2.65
2023-03-17T23:38:27.612Z,2.75
2023-03-17T23:40:57.424Z,2.92
2023-03-17T23:43:25.932Z,2.50
2023-03-17T23:45:54.983Z,2.67
2023-03-17T23:48:23.100Z,2.40
2023-03-17T23:50:52.521Z,2.45
2023-03-17T23:53:20.282Z,3.08
2023-03-17T23:55:48.810Z,2.35
2023-03-17T23:58:16.654Z,2.70
